KCIC/CIC METAR and TAF weather

Enter ICAO airport designator
Station Type Date Time Source
KCIC METAR 2021/07/30 23:47 UTC NOAA

KCIC 302347Z 17010KT 10SM SCT055 39/13 A2979 RMK FUHZ ALQDS


Station Type Date Time Source
KCIC Decoded METAR 2021/07/30 23:47 UTC NOAA

Chico Municipal , CA, United States (KCIC) 39-48N 121-51W
Jul 30, 2021 - 07:47 PM EDT / 2021.07.30 2347 UTC
Wind: from the S (170 degrees) at 12 MPH (10 KT):0
Visibility: 10 mile(s):0
Sky conditions: partly cloudy
Temperature: 102 F (39 C)
Heat index: 100.6 F (38.1 C):1
Dew Point: 55 F (13 C)
Relative Humidity: 21%
Pressure (altimeter): 29.79 in. Hg (1008 hPa)
ob: KCIC 302347Z 17010KT 10SM SCT055 39/13 A2979 RMK FUHZ ALQDS
cycle: 0

Station Type Date Time Source
KCIC TAF UTC NOAA

Error!

Example: see airport list